createdAt,value
2022-12-27T00:00:03.029Z,5.10
2022-12-27T00:01:03.059Z,5.10
2022-12-27T00:02:02.966Z,5.10
2022-12-27T00:03:02.975Z,5.10
2022-12-27T00:04:02.850Z,5.10
2022-12-27T00:05:02.802Z,5.00
2022-12-27T00:06:02.870Z,5.00
2022-12-27T00:07:02.843Z,5.00
2022-12-27T00:08:02.838Z,5.00
2022-12-27T00:09:02.851Z,4.90
2022-12-27T00:10:03.131Z,4.90
2022-12-27T00:11:03.021Z,4.90
2022-12-27T00:12:03.101Z,4.90
2022-12-27T00:13:02.961Z,4.90
2022-12-27T00:14:02.937Z,4.90
2022-12-27T00:15:02.911Z,4.80
2022-12-27T00:16:08.020Z,4.80
2022-12-27T00:17:02.940Z,4.80
2022-12-27T00:18:02.951Z,4.80
2022-12-27T00:19:02.910Z,4.80
2022-12-27T00:20:05.495Z,4.80
2022-12-27T00:21:02.935Z,4.70
2022-12-27T00:22:02.884Z,4.70
2022-12-27T00:23:02.798Z,4.70
2022-12-27T00:24:02.674Z,4.70
2022-12-27T00:25:02.742Z,4.60
2022-12-27T00:26:02.646Z,4.60
2022-12-27T00:27:02.600Z,4.60
2022-12-27T00:28:03.541Z,4.60
2022-12-27T00:29:03.468Z,4.60
2022-12-27T00:30:03.402Z,4.60
2022-12-27T00:31:03.383Z,4.60
2022-12-27T00:32:03.529Z,4.60
2022-12-27T00:33:03.349Z,4.50
2022-12-27T00:34:03.285Z,4.50
2022-12-27T00:35:03.183Z,4.50
2022-12-27T00:36:03.254Z,4.50
2022-12-27T00:37:03.307Z,4.50
2022-12-27T00:38:03.293Z,4.50
2022-12-27T00:39:03.256Z,4.40
2022-12-27T00:40:03.143Z,4.40
2022-12-27T00:41:03.216Z,4.30
2022-12-27T00:42:03.102Z,4.30
2022-12-27T00:43:03.131Z,4.30
2022-12-27T00:44:03.099Z,4.20
2022-12-27T00:45:03.073Z,4.20
2022-12-27T00:46:03.132Z,4.20
2022-12-27T00:47:03.065Z,4.20
2022-12-27T00:48:03.108Z,4.20
2022-12-27T00:49:03.433Z,4.10
2022-12-27T00:50:03.469Z,4.10
2022-12-27T00:51:03.551Z,4.00
2022-12-27T00:52:02.622Z,4.00
2022-12-27T00:53:02.650Z,4.00
2022-12-27T00:54:03.533Z,4.00
2022-12-27T00:55:02.756Z,3.90
2022-12-27T00:56:02.736Z,3.90
2022-12-27T00:57:02.736Z,3.90
2022-12-27T00:58:03.186Z,3.80
2022-12-27T00:59:03.086Z,3.80
2022-12-27T01:00:08.045Z,3.80
2022-12-27T01:01:03.059Z,3.80
2022-12-27T01:02:03.078Z,3.80
2022-12-27T01:03:02.969Z,3.70
2022-12-27T01:04:03.036Z,3.70
2022-12-27T01:05:02.995Z,3.70
2022-12-27T01:06:02.967Z,3.70
2022-12-27T01:07:02.985Z,3.70
2022-12-27T01:08:02.882Z,3.60
2022-12-27T01:09:02.821Z,3.60
2022-12-27T01:10:03.227Z,3.60
2022-12-27T01:11:02.975Z,3.60
2022-12-27T01:12:02.962Z,3.60
2022-12-27T01:13:02.867Z,3.60
2022-12-27T01:14:02.794Z,3.60
2022-12-27T01:15:02.683Z,3.60
2022-12-27T01:16:02.757Z,3.60
2022-12-27T01:17:02.900Z,3.50
2022-12-27T01:18:02.811Z,3.50
2022-12-27T01:19:02.848Z,3.50
2022-12-27T01:20:02.847Z,3.50
2022-12-27T01:21:02.879Z,3.50
2022-12-27T01:22:02.815Z,3.50
2022-12-27T01:23:02.748Z,3.40
2022-12-27T01:24:02.818Z,3.40
2022-12-27T01:25:02.943Z,3.40
2022-12-27T01:26:02.835Z,3.40
2022-12-27T01:27:02.894Z,3.40
2022-12-27T01:28:02.846Z,3.40
2022-12-27T01:29:02.852Z,3.30
2022-12-27T01:30:02.962Z,3.30
2022-12-27T01:31:02.970Z,3.30
2022-12-27T01:32:02.934Z,3.30
2022-12-27T01:33:02.885Z,3.30
2022-12-27T01:34:02.736Z,3.30
2022-12-27T01:35:02.761Z,3.20
2022-12-27T01:36:02.773Z,3.20
2022-12-27T01:37:02.832Z,3.20
2022-12-27T01:38:02.794Z,3.20
2022-12-27T01:39:02.789Z,3.20
2022-12-27T01:40:02.879Z,3.20
2022-12-27T01:41:02.824Z,3.10
2022-12-27T01:42:02.744Z,3.10
2022-12-27T01:43:02.870Z,3.10
2022-12-27T01:44:02.910Z,3.10
2022-12-27T01:45:03.041Z,3.10
2022-12-27T01:46:02.975Z,3.10
2022-12-27T01:47:03.011Z,3.10
2022-12-27T01:48:03.041Z,3.00
2022-12-27T01:49:05.154Z,3.00
2022-12-27T01:50:03.050Z,3.00
2022-12-27T01:51:02.982Z,3.00
2022-12-27T01:52:03.069Z,3.00
2022-12-27T01:53:02.986Z,3.00
2022-12-27T01:54:03.006Z,3.00
2022-12-27T01:55:02.951Z,3.00
2022-12-27T01:56:02.859Z,2.90
2022-12-27T01:57:02.804Z,2.90
2022-12-27T01:58:02.722Z,2.90
2022-12-27T01:59:02.685Z,2.90
2022-12-27T02:00:02.685Z,2.90
2022-12-27T02:01:02.611Z,2.90
2022-12-27T02:02:03.655Z,2.90
2022-12-27T02:03:03.543Z,2.90
2022-12-27T02:04:03.429Z,2.90
2022-12-27T02:05:03.324Z,2.90
2022-12-27T02:06:03.343Z,2.90
2022-12-27T02:07:03.322Z,2.90
2022-12-27T02:08:03.301Z,2.80
2022-12-27T02:09:03.226Z,2.80
2022-12-27T02:10:03.174Z,2.80
2022-12-27T02:11:03.177Z,2.80
2022-12-27T02:12:03.283Z,2.80
2022-12-27T02:13:03.179Z,2.70
2022-12-27T02:14:03.161Z,2.70
2022-12-27T02:15:03.112Z,2.70
2022-12-27T02:16:03.559Z,2.70
2022-12-27T02:17:03.568Z,2.70
2022-12-27T02:18:03.558Z,2.70
2022-12-27T02:19:03.442Z,2.60
2022-12-27T02:20:03.455Z,2.60
2022-12-27T02:21:03.364Z,2.60
2022-12-27T02:22:03.211Z,2.60
2022-12-27T02:23:03.156Z,2.60
2022-12-27T02:24:03.169Z,2.50
2022-12-27T02:25:03.538Z,2.50
2022-12-27T02:26:03.235Z,2.50
2022-12-27T02:27:03.216Z,2.50
2022-12-27T02:28:03.029Z,2.50
2022-12-27T02:29:03.545Z,2.50
2022-12-27T02:30:02.933Z,2.50
2022-12-27T02:31:02.783Z,2.40
2022-12-27T02:32:02.691Z,2.40
2022-12-27T02:33:02.698Z,2.40
2022-12-27T02:34:02.647Z,2.40
2022-12-27T02:35:03.483Z,2.40
2022-12-27T02:36:03.442Z,2.40
2022-12-27T02:37:03.503Z,2.40
2022-12-27T02:38:02.676Z,2.40
2022-12-27T02:39:03.509Z,2.30
2022-12-27T02:40:03.384Z,2.40
2022-12-27T02:41:03.291Z,2.30
2022-12-27T02:42:03.204Z,2.30
2022-12-27T02:43:03.103Z,2.30
2022-12-27T02:44:03.118Z,2.30
2022-12-27T02:45:02.997Z,2.30
2022-12-27T02:46:02.822Z,2.30
2022-12-27T02:47:02.777Z,2.30
2022-12-27T02:48:02.688Z,2.30
2022-12-27T02:49:03.583Z,2.30
2022-12-27T02:50:03.457Z,2.30
2022-12-27T02:51:03.493Z,2.30
2022-12-27T02:52:03.372Z,2.20
2022-12-27T02:53:03.471Z,2.20
2022-12-27T02:54:03.155Z,2.20
2022-12-27T02:55:03.050Z,2.20
2022-12-27T02:56:03.092Z,2.20
2022-12-27T02:57:03.052Z,2.20
2022-12-27T02:58:03.251Z,2.20
2022-12-27T02:59:03.233Z,2.20
2022-12-27T03:00:03.150Z,2.10
2022-12-27T03:01:03.109Z,2.10
2022-12-27T03:02:03.089Z,2.10
2022-12-27T03:03:03.146Z,2.10
2022-12-27T03:04:02.709Z,2.10
2022-12-27T03:05:02.764Z,2.10
2022-12-27T03:06:02.678Z,2.10
2022-12-27T03:07:03.518Z,2.10
2022-12-27T03:08:03.374Z,2.00
2022-12-27T03:09:03.381Z,2.00
2022-12-27T03:10:03.414Z,2.00
2022-12-27T03:11:03.253Z,2.00
2022-12-27T03:12:03.108Z,2.00
2022-12-27T03:13:03.142Z,2.00
2022-12-27T03:14:03.001Z,2.00
2022-12-27T03:15:03.085Z,2.00
2022-12-27T03:16:02.996Z,1.90
2022-12-27T03:17:02.856Z,1.90
2022-12-27T03:18:02.805Z,1.90
2022-12-27T03:19:02.650Z,1.90
2022-12-27T03:20:03.532Z,1.90
2022-12-27T03:21:03.462Z,1.90
2022-12-27T03:22:03.322Z,1.90
2022-12-27T03:23:03.264Z,1.90
2022-12-27T03:24:03.311Z,1.90
2022-12-27T03:25:03.131Z,1.80
2022-12-27T03:26:02.993Z,1.80
2022-12-27T03:27:02.911Z,1.80
2022-12-27T03:28:02.754Z,1.80
2022-12-27T03:29:02.611Z,1.80
2022-12-27T03:30:03.495Z,1.80
2022-12-27T03:31:03.612Z,1.80
2022-12-27T03:32:03.577Z,1.80
2022-12-27T03:33:03.385Z,1.80
2022-12-27T03:34:03.340Z,1.80
2022-12-27T03:35:03.267Z,1.80
2022-12-27T03:36:03.182Z,1.80
2022-12-27T03:37:03.454Z,1.70
2022-12-27T03:38:03.433Z,1.80
2022-12-27T03:39:03.430Z,1.80
2022-12-27T03:40:03.254Z,1.80
2022-12-27T03:41:03.217Z,1.70
2022-12-27T03:42:03.009Z,1.70
2022-12-27T03:43:03.011Z,1.70
2022-12-27T03:44:02.930Z,1.70
2022-12-27T03:45:02.961Z,1.70
2022-12-27T03:46:02.789Z,1.70
2022-12-27T03:47:02.790Z,1.70
2022-12-27T03:48:02.772Z,1.70
2022-12-27T03:49:02.741Z,1.70
2022-12-27T03:50:02.653Z,1.70
2022-12-27T03:51:02.671Z,1.70
2022-12-27T03:52:08.643Z,1.70
2022-12-27T03:53:03.498Z,1.70
2022-12-27T03:54:03.328Z,1.60
2022-12-27T03:55:03.396Z,1.60
2022-12-27T03:56:03.271Z,1.60
2022-12-27T03:57:03.233Z,1.60
2022-12-27T03:58:03.100Z,1.60
2022-12-27T03:59:03.039Z,1.60
2022-12-27T04:00:02.934Z,1.60
2022-12-27T04:01:02.848Z,1.60
2022-12-27T04:02:02.845Z,1.60
2022-12-27T04:03:02.841Z,1.60
2022-12-27T04:04:02.618Z,1.60
2022-12-27T04:05:02.659Z,1.60
2022-12-27T04:06:03.453Z,1.50
2022-12-27T04:07:03.461Z,1.50
2022-12-27T04:08:03.356Z,1.50
2022-12-27T04:09:03.292Z,1.50
2022-12-27T04:10:03.155Z,1.50
2022-12-27T04:11:03.139Z,1.50
2022-12-27T04:12:03.081Z,1.50
2022-12-27T04:13:02.901Z,1.50
2022-12-27T04:14:02.862Z,1.50
2022-12-27T04:15:02.695Z,1.40
2022-12-27T04:16:02.993Z,1.40
2022-12-27T04:17:03.221Z,1.40
2022-12-27T04:18:03.133Z,1.40
2022-12-27T04:19:08.078Z,1.40
2022-12-27T04:20:08.724Z,1.40
2022-12-27T04:21:03.219Z,1.40
2022-12-27T04:22:03.053Z,1.40
2022-12-27T04:23:03.027Z,1.40
2022-12-27T04:24:02.958Z,1.40
2022-12-27T04:25:02.770Z,1.40
2022-12-27T04:26:02.619Z,1.40
2022-12-27T04:27:03.491Z,1.40
2022-12-27T04:28:03.478Z,1.40
2022-12-27T04:29:03.341Z,1.40
2022-12-27T04:30:03.168Z,1.40
2022-12-27T04:31:03.123Z,1.40
2022-12-27T04:32:03.113Z,1.40
2022-12-27T04:33:03.193Z,1.40
2022-12-27T04:34:03.209Z,1.40
2022-12-27T04:35:02.987Z,1.40
2022-12-27T04:36:06.301Z,1.40
2022-12-27T04:37:02.997Z,1.40
2022-12-27T04:38:02.979Z,1.40
2022-12-27T04:39:02.865Z,1.40
2022-12-27T04:40:02.812Z,1.40
2022-12-27T04:41:02.822Z,1.30
2022-12-27T04:42:02.680Z,1.30
2022-12-27T04:43:03.548Z,1.30
2022-12-27T04:44:03.480Z,1.30
2022-12-27T04:45:03.335Z,1.30
2022-12-27T04:46:03.382Z,1.30
2022-12-27T04:47:03.469Z,1.30
2022-12-27T04:48:03.371Z,1.30
2022-12-27T04:49:03.308Z,1.30
2022-12-27T04:50:03.133Z,1.30
2022-12-27T04:51:03.038Z,1.30
2022-12-27T04:52:02.967Z,1.30
2022-12-27T04:53:02.870Z,1.30
2022-12-27T04:54:02.827Z,1.30
2022-12-27T04:55:02.806Z,1.30
2022-12-27T04:56:02.577Z,1.30
2022-12-27T04:57:03.539Z,1.30
2022-12-27T04:58:03.500Z,1.30
2022-12-27T04:59:03.354Z,1.30
2022-12-27T05:00:03.282Z,1.30
2022-12-27T05:01:03.275Z,1.30
2022-12-27T05:02:03.420Z,1.30
2022-12-27T05:03:08.218Z,1.30
2022-12-27T05:04:03.133Z,1.30
2022-12-27T05:05:03.043Z,1.30
2022-12-27T05:06:02.938Z,1.30
2022-12-27T05:07:02.812Z,1.30
2022-12-27T05:08:02.721Z,1.30
2022-12-27T05:09:02.656Z,1.30
2022-12-27T05:10:02.702Z,1.30
2022-12-27T05:11:02.730Z,1.30
2022-12-27T05:12:02.668Z,1.30
2022-12-27T05:13:09.031Z,1.30
2022-12-27T05:14:03.473Z,1.30
2022-12-27T05:15:03.307Z,1.30
2022-12-27T05:16:03.434Z,1.30
2022-12-27T05:17:03.427Z,1.30
2022-12-27T05:18:03.289Z,1.30
2022-12-27T05:19:03.252Z,1.30
2022-12-27T05:20:03.250Z,1.30
2022-12-27T05:21:03.003Z,1.30
2022-12-27T05:22:03.277Z,1.30
2022-12-27T05:23:02.928Z,1.40
2022-12-27T05:24:05.562Z,1.30
2022-12-27T05:25:02.944Z,1.40
2022-12-27T05:26:02.923Z,1.40
2022-12-27T05:27:02.727Z,1.40
2022-12-27T05:28:02.721Z,1.40
2022-12-27T05:29:02.812Z,1.40
2022-12-27T05:30:02.782Z,1.40
2022-12-27T05:31:03.058Z,1.40
2022-12-27T05:32:04.686Z,1.40
2022-12-27T05:33:02.919Z,1.40
2022-12-27T05:34:02.823Z,1.40
2022-12-27T05:35:02.825Z,1.40
2022-12-27T05:36:02.781Z,1.40
2022-12-27T05:37:02.609Z,1.40
2022-12-27T05:38:03.509Z,1.40
2022-12-27T05:39:03.606Z,1.40
2022-12-27T05:40:03.615Z,1.40
2022-12-27T05:41:03.559Z,1.40
2022-12-27T05:42:03.550Z,1.40
2022-12-27T05:43:03.576Z,1.40
2022-12-27T05:44:07.027Z,1.40
2022-12-27T05:45:03.462Z,1.40
2022-12-27T05:46:03.440Z,1.40
2022-12-27T05:47:03.482Z,1.40
2022-12-27T05:48:03.294Z,1.40
2022-12-27T05:49:03.198Z,1.40
2022-12-27T05:50:03.117Z,1.40
2022-12-27T05:51:03.166Z,1.40
2022-12-27T05:52:03.016Z,1.40
2022-12-27T05:53:03.088Z,1.40
2022-12-27T05:54:02.904Z,1.40
2022-12-27T05:55:02.833Z,1.40
2022-12-27T05:56:02.886Z,1.40
2022-12-27T05:57:02.714Z,1.50
2022-12-27T05:58:02.673Z,1.50
2022-12-27T05:59:02.613Z,1.50
2022-12-27T06:00:03.560Z,1.50
2022-12-27T06:01:03.522Z,1.50
2022-12-27T06:02:03.492Z,1.50
2022-12-27T06:03:03.406Z,1.50
2022-12-27T06:04:03.638Z,1.50
2022-12-27T06:05:03.177Z,1.50
2022-12-27T06:06:03.082Z,1.50
2022-12-27T06:07:03.022Z,1.50
2022-12-27T06:08:02.879Z,1.50
2022-12-27T06:09:02.885Z,1.60
2022-12-27T06:10:02.889Z,1.60
2022-12-27T06:11:02.910Z,1.60
2022-12-27T06:12:02.917Z,1.60
2022-12-27T06:13:02.756Z,1.60
2022-12-27T06:14:02.709Z,1.60
2022-12-27T06:15:02.690Z,1.50
2022-12-27T06:16:03.738Z,1.60
2022-12-27T06:17:03.594Z,1.60
2022-12-27T06:18:03.638Z,1.50
2022-12-27T06:19:03.405Z,1.60
2022-12-27T06:20:03.314Z,1.60
2022-12-27T06:21:03.302Z,1.60
2022-12-27T06:22:03.395Z,1.60
2022-12-27T06:23:03.218Z,1.60
2022-12-27T06:24:03.107Z,1.60
2022-12-27T06:25:03.019Z,1.60
2022-12-27T06:26:02.912Z,1.60
2022-12-27T06:27:02.963Z,1.60
2022-12-27T06:28:02.832Z,1.60
2022-12-27T06:29:02.833Z,1.60
2022-12-27T06:30:02.821Z,1.60
2022-12-27T06:31:03.568Z,1.60
2022-12-27T06:32:08.707Z,1.60
2022-12-27T06:33:03.376Z,1.60
2022-12-27T06:34:03.373Z,1.60
2022-12-27T06:35:03.278Z,1.60
2022-12-27T06:36:03.267Z,1.60
2022-12-27T06:37:03.507Z,1.60
2022-12-27T06:38:03.335Z,1.60
2022-12-27T06:39:03.407Z,1.60
2022-12-27T06:40:03.261Z,1.60
2022-12-27T06:41:03.203Z,1.60
2022-12-27T06:42:03.002Z,1.70
2022-12-27T06:43:02.899Z,1.70
2022-12-27T06:44:02.830Z,1.70
2022-12-27T06:45:02.805Z,1.70
2022-12-27T06:46:03.026Z,1.70
2022-12-27T06:47:02.680Z,1.70
2022-12-27T06:48:02.554Z,1.70
2022-12-27T06:49:03.510Z,1.80
2022-12-27T06:50:03.355Z,1.80
2022-12-27T06:51:03.290Z,1.80
2022-12-27T06:52:03.288Z,1.80
2022-12-27T06:53:03.360Z,1.80
2022-12-27T06:54:03.212Z,1.80
2022-12-27T06:55:02.577Z,1.80
2022-12-27T06:56:03.480Z,1.80
2022-12-27T06:57:03.635Z,1.90
2022-12-27T06:58:03.395Z,1.90
2022-12-27T06:59:03.298Z,1.90
2022-12-27T07:00:03.242Z,1.90
2022-12-27T07:01:03.198Z,1.90
2022-12-27T07:02:03.442Z,1.90
2022-12-27T07:03:03.179Z,1.90
2022-12-27T07:04:03.004Z,1.90
2022-12-27T07:05:02.986Z,1.90
2022-12-27T07:06:02.814Z,1.90
2022-12-27T07:07:03.204Z,1.90
2022-12-27T07:08:03.063Z,1.90
2022-12-27T07:09:02.858Z,2.00
2022-12-27T07:10:02.841Z,2.00
2022-12-27T07:11:02.739Z,1.90
2022-12-27T07:12:02.965Z,1.90
2022-12-27T07:13:03.506Z,2.00
2022-12-27T07:14:03.411Z,1.90
2022-12-27T07:15:03.383Z,1.90
2022-12-27T07:16:03.411Z,2.00
2022-12-27T07:17:03.188Z,2.00
2022-12-27T07:18:03.241Z,2.00
2022-12-27T07:19:03.375Z,2.00
2022-12-27T07:20:03.248Z,2.00
2022-12-27T07:21:03.188Z,2.00
2022-12-27T07:22:03.208Z,1.90
2022-12-27T07:23:03.199Z,2.00
2022-12-27T07:24:03.117Z,2.00
2022-12-27T07:25:02.983Z,2.00
2022-12-27T07:26:03.439Z,2.00
2022-12-27T07:27:03.316Z,2.00
2022-12-27T07:28:02.952Z,2.00
2022-12-27T07:29:02.742Z,2.00
2022-12-27T07:30:03.666Z,2.00
2022-12-27T07:31:03.197Z,2.00
2022-12-27T07:32:03.132Z,2.00
2022-12-27T07:33:02.860Z,2.00
2022-12-27T07:34:02.816Z,2.00
2022-12-27T07:35:02.694Z,2.00
2022-12-27T07:36:03.565Z,2.00
2022-12-27T07:37:03.457Z,2.00
2022-12-27T07:38:03.337Z,2.00
2022-12-27T07:39:03.321Z,2.00
2022-12-27T07:40:03.176Z,2.00
2022-12-27T07:41:03.069Z,2.00
2022-12-27T07:42:07.863Z,2.00
2022-12-27T07:43:02.902Z,2.00
2022-12-27T07:44:02.828Z,2.00
2022-12-27T07:45:02.972Z,2.10
2022-12-27T07:46:02.581Z,2.10
2022-12-27T07:47:03.472Z,2.10
2022-12-27T07:48:03.414Z,2.10
2022-12-27T07:49:03.423Z,2.10
2022-12-27T07:50:03.450Z,2.10
2022-12-27T07:51:03.385Z,2.10
2022-12-27T07:52:03.293Z,2.10
2022-12-27T07:53:03.288Z,2.10
2022-12-27T07:54:03.125Z,2.10
2022-12-27T07:55:03.067Z,2.10
2022-12-27T07:56:02.986Z,2.10
2022-12-27T07:57:02.897Z,2.10
2022-12-27T07:58:03.133Z,2.10
2022-12-27T07:59:03.113Z,2.10
2022-12-27T08:00:03.001Z,2.10
2022-12-27T08:01:02.949Z,2.10
2022-12-27T08:02:03.022Z,2.10
2022-12-27T08:03:02.661Z,2.10
2022-12-27T08:04:03.886Z,2.10
2022-12-27T08:05:03.403Z,2.10
2022-12-27T08:06:03.287Z,2.10
2022-12-27T08:07:03.139Z,2.10
2022-12-27T08:08:03.172Z,2.10
2022-12-27T08:09:03.409Z,2.10
2022-12-27T08:10:03.326Z,2.10
2022-12-27T08:11:05.640Z,2.10
2022-12-27T08:12:03.459Z,2.10
2022-12-27T08:13:03.263Z,2.10
2022-12-27T08:14:03.242Z,2.10
2022-12-27T08:15:03.132Z,2.10
2022-12-27T08:16:03.043Z,2.10
2022-12-27T08:17:02.919Z,2.10
2022-12-27T08:18:02.873Z,2.20
2022-12-27T08:19:08.116Z,2.20
2022-12-27T08:20:02.751Z,2.20
2022-12-27T08:21:02.598Z,2.20
2022-12-27T08:22:02.588Z,2.20
2022-12-27T08:23:03.539Z,2.20
2022-12-27T08:24:02.745Z,2.20
2022-12-27T08:25:03.016Z,2.20
2022-12-27T08:26:02.839Z,2.20
2022-12-27T08:27:02.876Z,2.30
2022-12-27T08:28:02.955Z,2.30
2022-12-27T08:29:02.692Z,2.30
2022-12-27T08:30:02.914Z,2.30
2022-12-27T08:31:03.092Z,2.30
2022-12-27T08:32:02.942Z,2.30
2022-12-27T08:33:02.825Z,2.30
2022-12-27T08:34:02.774Z,2.30
2022-12-27T08:35:24.954Z,2.40
2022-12-27T08:36:11.423Z,2.40
2022-12-27T08:37:03.135Z,2.40
2022-12-27T08:38:03.089Z,2.40
2022-12-27T08:39:02.966Z,2.40
2022-12-27T08:40:03.330Z,2.40
2022-12-27T08:41:02.964Z,2.40
2022-12-27T08:42:03.126Z,2.50
2022-12-27T08:43:02.872Z,2.50
2022-12-27T08:44:02.799Z,2.50
2022-12-27T08:45:02.782Z,2.50
2022-12-27T08:46:02.846Z,2.50
2022-12-27T08:47:02.641Z,2.50
2022-12-27T08:48:03.627Z,2.50
2022-12-27T08:49:03.495Z,2.50
2022-12-27T08:50:03.325Z,2.50
2022-12-27T08:51:07.393Z,2.50
2022-12-27T08:52:03.177Z,2.50
2022-12-27T08:53:03.057Z,2.50
2022-12-27T08:54:03.034Z,2.50
2022-12-27T08:55:02.909Z,2.50
2022-12-27T08:56:02.836Z,2.60
2022-12-27T08:57:02.676Z,2.60
2022-12-27T08:58:03.565Z,2.60
2022-12-27T08:59:03.592Z,2.60
2022-12-27T09:00:03.470Z,2.60
2022-12-27T09:01:03.291Z,2.60
2022-12-27T09:02:03.474Z,2.60
2022-12-27T09:03:02.890Z,2.60
2022-12-27T09:04:02.818Z,2.60
2022-12-27T09:05:02.983Z,2.70
2022-12-27T09:06:02.884Z,2.70
2022-12-27T09:07:02.854Z,2.70
2022-12-27T09:08:08.325Z,2.70
2022-12-27T09:09:02.675Z,2.70
2022-12-27T09:10:03.560Z,2.80
2022-12-27T09:11:08.725Z,2.80
2022-12-27T09:12:08.068Z,2.80
2022-12-27T09:13:03.316Z,2.80
2022-12-27T09:14:03.318Z,2.80
2022-12-27T09:15:03.298Z,2.90
2022-12-27T09:16:03.187Z,2.90
2022-12-27T09:17:03.163Z,2.90
2022-12-27T09:18:02.922Z,2.90
2022-12-27T09:19:02.847Z,2.90
2022-12-27T09:20:02.731Z,3.00
2022-12-27T09:21:02.793Z,3.00
2022-12-27T09:22:03.298Z,3.00
2022-12-27T09:23:02.827Z,3.00
2022-12-27T09:24:03.109Z,3.00
2022-12-27T09:25:03.605Z,3.10
2022-12-27T09:26:03.523Z,3.10
2022-12-27T09:27:03.523Z,3.10
2022-12-27T09:28:03.589Z,3.10
2022-12-27T09:29:03.275Z,3.10
2022-12-27T09:30:03.137Z,3.10
2022-12-27T09:31:08.400Z,3.20
2022-12-27T09:32:03.132Z,3.20
2022-12-27T09:33:03.055Z,3.20
2022-12-27T09:34:02.924Z,3.20
2022-12-27T09:35:02.831Z,3.30
2022-12-27T09:36:02.701Z,3.30
2022-12-27T09:37:02.876Z,3.30
2022-12-27T09:38:03.533Z,3.30
2022-12-27T09:39:03.895Z,3.40
2022-12-27T09:40:03.446Z,3.40
2022-12-27T09:41:03.443Z,3.40
2022-12-27T09:43:19.367Z,3.50
2022-12-27T09:44:03.577Z,3.50
2022-12-27T09:45:02.999Z,3.50
2022-12-27T09:46:03.064Z,3.50
2022-12-27T09:47:02.804Z,3.50
2022-12-27T09:48:03.126Z,3.60
2022-12-27T09:49:02.956Z,3.60
2022-12-27T09:50:02.685Z,3.60
2022-12-27T09:51:02.607Z,3.60
2022-12-27T09:52:02.591Z,3.60
2022-12-27T09:53:03.538Z,3.70
2022-12-27T09:54:03.499Z,3.70
2022-12-27T09:55:05.234Z,3.70
2022-12-27T09:56:03.402Z,3.70
2022-12-27T09:57:19.693Z,3.80
2022-12-27T09:58:03.489Z,3.80
2022-12-27T09:59:03.410Z,3.80
2022-12-27T10:00:03.446Z,3.90
2022-12-27T10:01:03.143Z,3.90
2022-12-27T10:02:03.316Z,3.90
2022-12-27T10:03:03.054Z,4.00
2022-12-27T10:04:02.916Z,4.00
2022-12-27T10:05:22.218Z,4.00
2022-12-27T10:06:02.817Z,4.00
2022-12-27T10:07:02.842Z,4.00
2022-12-27T10:08:02.601Z,4.00
2022-12-27T10:09:03.509Z,4.00
2022-12-27T10:10:03.550Z,4.00
2022-12-27T10:11:03.278Z,4.10
2022-12-27T10:12:03.211Z,4.10
2022-12-27T10:13:03.090Z,4.10
2022-12-27T10:14:03.135Z,4.10
2022-12-27T10:15:03.218Z,4.10
2022-12-27T10:16:03.212Z,4.10
2022-12-27T10:17:03.057Z,4.10
2022-12-27T10:18:03.067Z,4.10
2022-12-27T10:19:03.037Z,4.10
2022-12-27T10:20:02.927Z,4.10
2022-12-27T10:21:02.897Z,4.10
2022-12-27T10:22:02.967Z,4.10
2022-12-27T10:23:06.116Z,4.10
2022-12-27T10:24:02.748Z,4.10
2022-12-27T10:25:02.643Z,4.10
2022-12-27T10:26:03.481Z,4.20
2022-12-27T10:27:03.382Z,4.20
2022-12-27T10:28:03.447Z,4.20
2022-12-27T10:29:03.349Z,4.20
2022-12-27T10:30:03.357Z,4.20
2022-12-27T10:31:03.273Z,4.20
2022-12-27T10:32:03.069Z,4.20
2022-12-27T10:33:02.972Z,4.20
2022-12-27T10:34:05.034Z,4.20
2022-12-27T10:35:03.074Z,4.20
2022-12-27T10:36:03.224Z,4.20
2022-12-27T10:37:03.177Z,4.20
2022-12-27T10:38:02.891Z,4.20
2022-12-27T10:39:02.809Z,4.20
2022-12-27T10:40:02.789Z,4.20
2022-12-27T10:41:03.569Z,4.20
2022-12-27T10:42:02.641Z,4.30
2022-12-27T10:43:03.681Z,4.30
2022-12-27T10:44:03.435Z,4.30
2022-12-27T10:45:03.352Z,4.30
2022-12-27T10:46:03.210Z,4.30
2022-12-27T10:47:03.272Z,4.30
2022-12-27T10:48:03.207Z,4.30
2022-12-27T10:49:21.207Z,4.30
2022-12-27T10:50:02.989Z,4.30
2022-12-27T10:51:02.962Z,4.30
2022-12-27T10:52:02.916Z,4.30
2022-12-27T10:53:02.765Z,4.30
2022-12-27T10:54:02.595Z,4.30
2022-12-27T10:55:03.529Z,4.30
2022-12-27T10:56:04.288Z,4.40
2022-12-27T10:57:03.414Z,4.30
2022-12-27T10:58:03.359Z,4.30
2022-12-27T10:59:03.280Z,4.40
2022-12-27T11:00:03.187Z,4.40
2022-12-27T11:01:03.201Z,4.40
2022-12-27T11:02:03.166Z,4.40
2022-12-27T11:03:03.327Z,4.40
2022-12-27T11:04:03.021Z,4.40
2022-12-27T11:05:02.865Z,4.40
2022-12-27T11:06:02.829Z,4.40
2022-12-27T11:07:02.749Z,4.40
2022-12-27T11:08:02.782Z,4.40
2022-12-27T11:09:03.622Z,4.40
2022-12-27T11:10:03.447Z,4.40
2022-12-27T11:11:03.519Z,4.40
2022-12-27T11:12:03.439Z,4.40
2022-12-27T11:13:03.356Z,4.40
2022-12-27T11:14:03.353Z,4.40
2022-12-27T11:15:03.404Z,4.40
2022-12-27T11:16:03.249Z,4.40
2022-12-27T11:17:03.136Z,4.40
2022-12-27T11:18:03.043Z,4.40
2022-12-27T11:19:03.084Z,4.40
2022-12-27T11:20:03.045Z,4.40
2022-12-27T11:21:03.165Z,4.40
2022-12-27T11:22:02.937Z,4.40
2022-12-27T11:23:02.869Z,4.40
2022-12-27T11:24:02.820Z,4.40
2022-12-27T11:25:03.191Z,4.40
2022-12-27T11:26:02.840Z,4.40
2022-12-27T11:27:02.719Z,4.40
2022-12-27T11:28:02.649Z,4.40
2022-12-27T11:29:03.583Z,4.40
2022-12-27T11:30:03.549Z,4.40
2022-12-27T11:31:03.716Z,4.40
2022-12-27T11:32:03.391Z,4.40
2022-12-27T11:33:03.301Z,4.40
2022-12-27T11:34:03.293Z,4.40
2022-12-27T11:35:03.260Z,4.40
2022-12-27T11:36:03.065Z,4.40
2022-12-27T11:37:02.943Z,4.40
2022-12-27T11:38:03.092Z,4.40
2022-12-27T11:39:07.983Z,4.40
2022-12-27T11:40:02.973Z,4.40
2022-12-27T11:41:02.845Z,4.40
2022-12-27T11:42:02.811Z,4.50
2022-12-27T11:43:02.939Z,4.50
2022-12-27T11:44:03.550Z,4.50
2022-12-27T11:45:03.512Z,4.50
2022-12-27T11:46:03.254Z,4.50
2022-12-27T11:47:03.222Z,4.50
2022-12-27T11:48:03.147Z,4.50
2022-12-27T11:49:02.994Z,4.50
2022-12-27T11:50:02.954Z,4.50
2022-12-27T11:51:02.931Z,4.50
2022-12-27T11:52:02.883Z,4.50
2022-12-27T11:53:02.860Z,4.50
2022-12-27T11:54:02.998Z,4.50
2022-12-27T11:55:02.855Z,4.50
2022-12-27T11:56:03.414Z,4.50
2022-12-27T11:57:02.642Z,4.60
2022-12-27T11:58:02.620Z,4.60
2022-12-27T11:59:03.595Z,4.60
2022-12-27T12:00:03.443Z,4.60
2022-12-27T12:01:05.591Z,4.60
2022-12-27T12:02:03.317Z,4.60
2022-12-27T12:03:03.394Z,4.60
2022-12-27T12:04:03.165Z,4.60
2022-12-27T12:05:03.162Z,4.60
2022-12-27T12:06:03.168Z,4.70
2022-12-27T12:07:03.069Z,4.70
2022-12-27T12:08:02.970Z,4.70
2022-12-27T12:09:03.319Z,4.70
2022-12-27T12:10:03.173Z,4.80
2022-12-27T12:11:03.362Z,4.80
2022-12-27T12:12:08.288Z,4.80
2022-12-27T12:13:03.136Z,4.80
2022-12-27T12:14:03.008Z,4.90
2022-12-27T12:15:02.939Z,4.90
2022-12-27T12:16:03.043Z,4.90
2022-12-27T12:17:02.933Z,4.90
2022-12-27T12:18:02.806Z,4.90
2022-12-27T12:19:07.668Z,4.90
2022-12-27T12:20:03.672Z,5.00
2022-12-27T12:21:03.417Z,5.00
2022-12-27T12:22:03.331Z,5.00
2022-12-27T12:23:03.212Z,5.00
2022-12-27T12:24:03.236Z,5.00
2022-12-27T12:25:03.307Z,5.00
2022-12-27T12:26:03.250Z,5.00
2022-12-27T12:27:03.275Z,5.00
2022-12-27T12:28:03.977Z,5.00
2022-12-27T12:29:08.154Z,5.10
2022-12-27T12:30:03.148Z,5.10
2022-12-27T12:31:02.955Z,5.10
2022-12-27T12:32:02.919Z,5.10
2022-12-27T12:33:02.866Z,5.10
2022-12-27T12:34:02.764Z,5.10
2022-12-27T12:35:02.784Z,5.10
2022-12-27T12:36:02.693Z,5.10
2022-12-27T12:37:03.536Z,5.10
2022-12-27T12:38:03.469Z,5.10
2022-12-27T12:39:03.358Z,5.10
2022-12-27T12:40:03.680Z,5.10
2022-12-27T12:41:03.180Z,5.20
2022-12-27T12:42:03.086Z,5.20
2022-12-27T12:43:03.108Z,5.20
2022-12-27T12:44:03.035Z,5.20
2022-12-27T12:45:02.905Z,5.20
2022-12-27T12:46:02.736Z,5.20
2022-12-27T12:47:02.870Z,5.20
2022-12-27T12:48:02.796Z,5.20
2022-12-27T12:49:02.864Z,5.20
2022-12-27T12:50:13.024Z,5.20
2022-12-27T12:51:02.597Z,5.20
2022-12-27T12:52:03.545Z,5.20
2022-12-27T12:53:03.511Z,5.20
2022-12-27T12:54:03.416Z,5.20
2022-12-27T12:55:03.307Z,5.20
2022-12-27T12:56:02.833Z,5.20
2022-12-27T12:57:02.760Z,5.20
2022-12-27T12:58:02.740Z,5.30
2022-12-27T12:59:02.728Z,5.30
2022-12-27T13:00:02.626Z,5.30
2022-12-27T13:01:02.628Z,5.30
2022-12-27T13:02:03.750Z,5.30
2022-12-27T13:03:02.696Z,5.30
2022-12-27T13:04:03.541Z,5.30
2022-12-27T13:05:03.421Z,5.30
2022-12-27T13:06:03.338Z,5.30
2022-12-27T13:07:03.283Z,5.30
2022-12-27T13:08:03.140Z,5.30
2022-12-27T13:09:03.103Z,5.30
2022-12-27T13:10:02.950Z,5.30
2022-12-27T13:11:02.837Z,5.30
2022-12-27T13:12:02.828Z,5.30
2022-12-27T13:13:02.896Z,5.30
2022-12-27T13:14:02.676Z,5.40
2022-12-27T13:15:02.599Z,5.40
2022-12-27T13:16:02.608Z,5.40
2022-12-27T13:17:03.593Z,5.40
2022-12-27T13:18:03.420Z,5.40
2022-12-27T13:19:03.378Z,5.40